createdAt,value
2023-01-08T00:01:12.633Z,10.60
2023-01-08T00:03:41.400Z,10.60
2023-01-08T00:06:12.410Z,10.60
2023-01-08T00:08:40.607Z,10.60
2023-01-08T00:11:10.356Z,10.60
2023-01-08T00:13:38.926Z,10.60
2023-01-08T00:16:09.734Z,10.60
2023-01-08T00:18:38.045Z,10.60
2023-01-08T00:21:07.481Z,10.60
2023-01-08T00:23:37.085Z,10.60
2023-01-08T00:26:06.861Z,10.70
2023-01-08T00:28:37.845Z,10.60
2023-01-08T00:31:07.209Z,10.70
2023-01-08T00:33:36.122Z,10.60
2023-01-08T00:36:08.865Z,10.60
2023-01-08T00:38:37.107Z,10.60
2023-01-08T00:41:06.461Z,10.60
2023-01-08T00:43:36.339Z,10.60
2023-01-08T00:46:04.655Z,10.60
2023-01-08T00:48:33.539Z,10.60
2023-01-08T00:51:03.404Z,10.60
2023-01-08T00:53:31.709Z,10.60
2023-01-08T00:56:04.657Z,10.60
2023-01-08T00:58:33.318Z,10.60
2023-01-08T01:01:03.520Z,10.60
2023-01-08T01:03:32.915Z,10.50
2023-01-08T01:06:05.022Z,10.60
2023-01-08T01:08:33.326Z,10.60
2023-01-08T01:11:01.621Z,10.60
2023-01-08T01:13:29.807Z,10.60
2023-01-08T01:15:59.116Z,10.60
2023-01-08T01:18:29.295Z,10.60
2023-01-08T01:20:57.538Z,10.60
2023-01-08T01:23:25.775Z,10.60
2023-01-08T01:25:54.545Z,10.60
2023-01-08T01:28:22.859Z,10.60
2023-01-08T01:30:56.361Z,10.60
2023-01-08T01:33:25.138Z,10.60
2023-01-08T01:36:03.327Z,10.60
2023-01-08T01:38:31.852Z,10.60
2023-01-08T01:41:00.297Z,10.60
2023-01-08T01:43:39.355Z,10.60
2023-01-08T01:46:21.169Z,10.60
2023-01-08T01:48:52.593Z,10.60
2023-01-08T01:51:22.774Z,10.60
2023-01-08T01:53:51.137Z,10.60
2023-01-08T01:56:19.536Z,10.60
2023-01-08T01:58:47.777Z,10.60
2023-01-08T02:01:17.284Z,10.60
2023-01-08T02:03:45.633Z,10.60
2023-01-08T02:06:23.387Z,10.60
2023-01-08T02:09:01.159Z,10.70
2023-01-08T02:11:40.106Z,10.60
2023-01-08T02:14:14.220Z,10.60
2023-01-08T02:16:49.256Z,10.60
2023-01-08T02:19:29.105Z,10.60
2023-01-08T02:22:07.089Z,10.60
2023-01-08T02:24:47.938Z,10.60
2023-01-08T02:27:18.613Z,10.60
2023-01-08T02:29:48.054Z,10.60
2023-01-08T02:32:16.401Z,10.60
2023-01-08T02:34:44.669Z,10.60
2023-01-08T02:37:12.970Z,10.70
2023-01-08T02:40:03.173Z,10.70
2023-01-08T02:42:41.625Z,10.70
2023-01-08T02:45:22.461Z,10.60
2023-01-08T02:47:55.735Z,10.70
2023-01-08T02:50:30.036Z,10.60
2023-01-08T02:53:05.727Z,10.60
2023-01-08T02:55:36.278Z,10.60
2023-01-08T02:58:06.668Z,10.60
2023-01-08T03:00:35.714Z,10.50
2023-01-08T03:03:09.784Z,10.50
2023-01-08T03:05:41.445Z,10.50
2023-01-08T03:08:11.185Z,10.50
2023-01-08T03:10:42.553Z,10.50
2023-01-08T03:13:16.862Z,10.50
2023-01-08T03:15:49.649Z,10.50
2023-01-08T03:18:22.139Z,10.50
2023-01-08T03:20:51.622Z,10.50
2023-01-08T03:23:23.759Z,10.50
2023-01-08T03:25:51.965Z,10.40
2023-01-08T03:28:30.193Z,10.50
2023-01-08T03:31:00.308Z,10.50
2023-01-08T03:33:31.122Z,10.40
2023-01-08T03:36:01.949Z,10.40
2023-01-08T03:38:35.739Z,10.40
2023-01-08T03:41:06.675Z,10.40
2023-01-08T03:43:36.422Z,10.40
2023-01-08T03:46:08.876Z,10.40
2023-01-08T03:48:39.059Z,10.40
2023-01-08T03:51:09.920Z,10.40
2023-01-08T03:53:38.263Z,10.40
2023-01-08T03:56:07.243Z,10.40
2023-01-08T03:58:36.946Z,10.40
2023-01-08T04:01:05.275Z,10.40
2023-01-08T04:03:33.494Z,10.30
2023-01-08T04:06:01.723Z,10.30
2023-01-08T04:08:29.955Z,10.30
2023-01-08T04:10:58.140Z,10.30
2023-01-08T04:13:26.352Z,10.20
2023-01-08T04:15:56.047Z,10.30
2023-01-08T04:18:24.333Z,10.30
2023-01-08T04:20:53.419Z,10.30
2023-01-08T04:23:21.646Z,10.20
2023-01-08T04:25:49.984Z,10.20
2023-01-08T04:28:18.207Z,10.20
2023-01-08T04:30:46.469Z,10.20
2023-01-08T04:33:16.129Z,10.20
2023-01-08T04:35:44.446Z,10.20
2023-01-08T04:38:12.647Z,10.20
2023-01-08T04:40:40.832Z,10.20
2023-01-08T04:43:09.078Z,10.20
2023-01-08T04:45:37.448Z,10.20
2023-01-08T04:48:06.749Z,10.20
2023-01-08T04:50:36.374Z,10.20
2023-01-08T04:53:04.597Z,10.20
2023-01-08T04:55:32.840Z,10.30
2023-01-08T04:58:00.979Z,10.30
2023-01-08T05:00:29.336Z,10.30
2023-01-08T05:02:57.588Z,10.30
2023-01-08T05:05:25.847Z,10.30
2023-01-08T05:07:55.413Z,10.30
2023-01-08T05:10:23.658Z,10.30
2023-01-08T05:12:51.907Z,10.30
2023-01-08T05:15:20.125Z,10.30
2023-01-08T05:17:48.365Z,10.30
2023-01-08T05:20:18.933Z,10.40
2023-01-08T05:22:49.529Z,10.40
2023-01-08T05:25:19.511Z,10.40
2023-01-08T05:27:48.222Z,10.40
2023-01-08T05:30:16.651Z,10.40
2023-01-08T05:32:44.866Z,10.40
2023-01-08T05:35:13.262Z,10.40
2023-01-08T05:37:41.449Z,10.30
2023-01-08T05:40:10.664Z,10.30
2023-01-08T05:42:40.229Z,10.30
2023-01-08T05:45:09.797Z,10.30
2023-01-08T05:47:38.228Z,10.30
2023-01-08T05:50:07.310Z,10.30
2023-01-08T05:52:35.667Z,10.30
2023-01-08T05:55:03.860Z,10.30
2023-01-08T05:57:32.153Z,10.30
2023-01-08T06:00:01.783Z,10.30
2023-01-08T06:02:39.886Z,10.20
2023-01-08T06:05:08.656Z,10.20
2023-01-08T06:07:36.792Z,10.20
2023-01-08T06:10:05.532Z,10.20
2023-01-08T06:12:33.856Z,10.20
2023-01-08T06:15:03.675Z,10.30
2023-01-08T06:17:31.937Z,10.20
2023-01-08T06:20:00.212Z,10.20
2023-01-08T06:22:28.785Z,10.30
2023-01-08T06:24:57.041Z,10.20
2023-01-08T06:27:25.222Z,10.20
2023-01-08T06:29:53.446Z,10.20
2023-01-08T06:32:23.082Z,10.10
2023-01-08T06:34:51.293Z,10.20
2023-01-08T06:37:19.549Z,10.20
2023-01-08T06:39:47.799Z,10.20
2023-01-08T06:42:15.994Z,10.20
2023-01-08T06:44:44.217Z,10.20
2023-01-08T06:47:12.370Z,10.20
2023-01-08T06:49:41.986Z,10.30
2023-01-08T06:52:10.246Z,10.20
2023-01-08T06:54:38.445Z,10.30
2023-01-08T06:57:06.644Z,10.30
2023-01-08T06:59:34.815Z,10.30
2023-01-08T07:02:03.250Z,10.20
2023-01-08T07:04:31.503Z,10.30
2023-01-08T07:07:01.075Z,10.30
2023-01-08T07:09:29.261Z,10.30
2023-01-08T07:11:57.491Z,10.20
2023-01-08T07:14:25.745Z,10.20
2023-01-08T07:16:53.979Z,10.20
2023-01-08T07:19:22.168Z,10.10
2023-01-08T07:21:50.317Z,10.10
2023-01-08T07:24:19.895Z,10.10
2023-01-08T07:26:48.053Z,10.10
2023-01-08T07:29:16.282Z,10.10
2023-01-08T07:31:44.573Z,10.20
2023-01-08T07:34:15.175Z,10.20
2023-01-08T07:36:43.573Z,10.30
2023-01-08T07:39:11.778Z,10.30
2023-01-08T07:41:41.359Z,10.30
2023-01-08T07:44:09.713Z,10.20
2023-01-08T07:46:37.956Z,10.20
2023-01-08T07:49:06.485Z,10.10
2023-01-08T07:51:34.703Z,10.00
2023-01-08T07:54:03.274Z,9.80
2023-01-08T07:56:31.492Z,9.70
2023-01-08T07:59:01.081Z,9.60
2023-01-08T08:01:29.438Z,9.60
2023-01-08T08:03:57.681Z,9.50
2023-01-08T08:06:25.971Z,9.50
2023-01-08T08:08:54.173Z,9.50
2023-01-08T08:11:22.370Z,9.40
2023-01-08T08:13:53.039Z,9.50
2023-01-08T08:16:23.518Z,9.50
2023-01-08T08:18:51.742Z,9.50
2023-01-08T08:21:19.946Z,9.50
2023-01-08T08:23:48.193Z,9.50
2023-01-08T08:26:16.360Z,9.50
2023-01-08T08:28:44.689Z,9.50
2023-01-08T08:31:12.968Z,9.40
2023-01-08T08:33:42.726Z,9.50
2023-01-08T08:36:11.077Z,9.50
2023-01-08T08:38:39.932Z,9.40
2023-01-08T08:41:08.351Z,9.50
2023-01-08T08:43:36.554Z,9.50
2023-01-08T08:46:04.848Z,9.50
2023-01-08T08:48:33.069Z,9.50
2023-01-08T08:51:02.779Z,9.50
2023-01-08T08:53:31.014Z,9.40
2023-01-08T08:55:59.683Z,9.40
2023-01-08T08:58:28.004Z,9.30
2023-01-08T09:00:56.203Z,9.30
2023-01-08T09:03:24.486Z,9.40
2023-01-08T09:05:52.729Z,9.50
2023-01-08T09:08:22.430Z,9.50
2023-01-08T09:10:50.638Z,9.50
2023-01-08T09:13:19.324Z,9.50
2023-01-08T09:15:47.527Z,9.50
2023-01-08T09:18:16.141Z,9.40
2023-01-08T09:20:44.442Z,9.40
2023-01-08T09:23:12.612Z,9.40
2023-01-08T09:25:42.203Z,9.30
2023-01-08T09:28:13.191Z,9.30
2023-01-08T09:30:41.799Z,9.30
2023-01-08T09:33:11.552Z,9.30
2023-01-08T09:35:39.801Z,9.30
2023-01-08T09:38:08.067Z,9.30
2023-01-08T09:40:40.565Z,9.30
2023-01-08T09:43:18.368Z,9.40
2023-01-08T09:45:51.129Z,9.40
2023-01-08T09:48:23.685Z,9.40
2023-01-08T09:50:52.181Z,9.40
2023-01-08T09:53:21.045Z,9.40
2023-01-08T09:56:09.076Z,9.50
2023-01-08T09:58:41.724Z,9.50
2023-01-08T10:01:15.538Z,9.60
2023-01-08T10:03:47.227Z,9.60
2023-01-08T10:06:17.000Z,9.60
2023-01-08T10:11:19.943Z,9.70
2023-01-08T10:13:53.336Z,9.70
2023-01-08T10:16:27.938Z,9.70
2023-01-08T10:18:56.303Z,9.70
2023-01-08T10:21:30.811Z,9.70
2023-01-08T10:23:59.039Z,9.70
2023-01-08T10:26:29.912Z,9.60
2023-01-08T10:29:15.001Z,9.60
2023-01-08T10:31:51.590Z,9.60
2023-01-08T10:34:28.378Z,9.60
2023-01-08T10:36:57.304Z,9.70
2023-01-08T10:39:28.050Z,9.80
2023-01-08T10:41:59.728Z,9.80
2023-01-08T10:44:29.461Z,9.80
2023-01-08T10:47:00.935Z,9.90
2023-01-08T10:49:34.185Z,9.90
2023-01-08T10:52:02.739Z,10.00
2023-01-08T10:54:37.324Z,10.10
2023-01-08T10:57:22.125Z,10.10
2023-01-08T10:59:51.809Z,10.10
2023-01-08T11:02:31.905Z,10.20
2023-01-08T11:05:01.413Z,10.20
2023-01-08T11:07:30.216Z,10.20
2023-01-08T11:09:58.472Z,10.30
2023-01-08T11:12:38.914Z,10.30
2023-01-08T11:15:27.190Z,10.30
2023-01-08T11:17:55.502Z,10.40
2023-01-08T11:20:29.097Z,10.40
2023-01-08T11:23:09.682Z,10.40
2023-01-08T11:25:39.753Z,10.40
2023-01-08T11:28:13.972Z,10.40
2023-01-08T11:30:50.473Z,10.50
2023-01-08T11:33:24.030Z,10.50
2023-01-08T11:35:57.636Z,10.50
2023-01-08T11:38:25.963Z,10.60
2023-01-08T11:41:00.590Z,10.60
2023-01-08T11:43:37.612Z,10.60
2023-01-08T11:46:19.891Z,10.70
2023-01-08T11:49:07.091Z,10.70
2023-01-08T11:51:44.557Z,10.70
2023-01-08T11:54:29.925Z,10.70
2023-01-08T11:57:09.585Z,10.80
2023-01-08T11:59:53.668Z,10.90
2023-01-08T12:02:32.295Z,11.00
2023-01-08T12:05:25.129Z,11.10
2023-01-08T12:08:01.093Z,11.20
2023-01-08T12:10:37.932Z,11.30
2023-01-08T12:13:19.736Z,11.30
2023-01-08T12:16:03.099Z,11.30
2023-01-08T12:18:40.754Z,11.40
2023-01-08T12:21:15.543Z,11.50
2023-01-08T12:24:00.619Z,11.50
2023-01-08T12:26:37.002Z,11.50
2023-01-08T12:29:28.204Z,11.60
2023-01-08T12:32:27.396Z,11.50
2023-01-08T12:35:04.549Z,11.30
2023-01-08T12:37:40.281Z,11.30
2023-01-08T12:40:16.363Z,11.40
2023-01-08T12:42:50.213Z,11.50
2023-01-08T12:45:29.071Z,11.70
2023-01-08T12:48:02.490Z,11.80
2023-01-08T12:51:02.709Z,11.80
2023-01-08T12:53:43.886Z,11.70
2023-01-08T12:56:18.063Z,11.80
2023-01-08T12:59:00.633Z,11.70
2023-01-08T13:01:37.812Z,11.60
2023-01-08T13:04:10.372Z,11.70
2023-01-08T13:06:50.596Z,11.70
2023-01-08T13:09:24.899Z,11.70
2023-01-08T13:11:55.167Z,11.70
2023-01-08T13:14:26.211Z,11.70
2023-01-08T13:17:07.001Z,11.60
2023-01-08T13:19:41.836Z,11.50
2023-01-08T13:22:26.038Z,10.80
2023-01-08T13:25:08.695Z,9.80
2023-01-08T13:27:37.090Z,9.30
2023-01-08T13:30:25.962Z,9.30
2023-01-08T13:32:54.240Z,9.30
2023-01-08T13:35:25.213Z,9.30
2023-01-08T13:38:14.652Z,9.30
2023-01-08T13:40:56.658Z,9.30
2023-01-08T13:43:29.929Z,9.30
2023-01-08T13:46:14.360Z,9.30
2023-01-08T13:48:50.790Z,9.30
2023-01-08T13:51:35.125Z,9.30
2023-01-08T13:54:17.305Z,9.20
2023-01-08T13:56:48.674Z,9.20
2023-01-08T13:59:26.625Z,9.20
2023-01-08T14:01:56.098Z,9.30
2023-01-08T14:04:25.092Z,9.30
2023-01-08T14:06:53.319Z,9.30
2023-01-08T14:09:25.066Z,9.30
2023-01-08T14:11:55.738Z,9.40
2023-01-08T14:14:25.684Z,9.30
2023-01-08T14:16:55.524Z,9.30
2023-01-08T14:19:26.651Z,9.30
2023-01-08T14:21:57.039Z,9.30
2023-01-08T14:24:27.368Z,9.30
2023-01-08T14:26:57.114Z,9.30
2023-01-08T14:29:27.693Z,9.30
2023-01-08T14:31:57.297Z,9.30
2023-01-08T14:34:28.357Z,9.20
2023-01-08T14:36:57.287Z,9.20
2023-01-08T14:39:34.357Z,9.20
2023-01-08T14:42:27.730Z,9.20
2023-01-08T14:44:57.039Z,9.20
2023-01-08T14:47:31.194Z,9.20
2023-01-08T14:49:59.595Z,9.20
2023-01-08T14:52:27.945Z,9.20
2023-01-08T14:55:00.889Z,9.20
2023-01-08T14:57:30.046Z,9.20
2023-01-08T14:59:59.734Z,9.20
2023-01-08T15:02:32.534Z,9.20
2023-01-08T15:05:14.419Z,9.10
2023-01-08T15:07:44.787Z,9.10
2023-01-08T15:10:37.407Z,9.20
2023-01-08T15:13:08.461Z,9.10
2023-01-08T15:15:42.755Z,9.10
2023-01-08T15:18:13.799Z,9.00
2023-01-08T15:20:46.254Z,8.90
2023-01-08T15:23:33.378Z,8.90
2023-01-08T15:26:03.113Z,9.00
2023-01-08T15:28:31.369Z,9.00
2023-01-08T15:30:59.602Z,9.10
2023-01-08T15:33:29.002Z,9.00
2023-01-08T15:35:58.252Z,9.00
2023-01-08T15:38:26.489Z,9.10
2023-01-08T15:40:56.039Z,8.90
2023-01-08T15:43:24.649Z,8.90
2023-01-08T15:45:52.852Z,8.80
2023-01-08T15:48:21.093Z,8.70
2023-01-08T15:50:49.403Z,8.60
2023-01-08T15:53:19.726Z,8.60
2023-01-08T15:55:48.081Z,8.60
2023-01-08T15:58:17.090Z,8.70
2023-01-08T16:00:47.701Z,8.70
2023-01-08T16:03:17.258Z,8.60
2023-01-08T16:05:45.715Z,8.60
2023-01-08T16:08:13.957Z,8.60
2023-01-08T16:10:42.173Z,8.60
2023-01-08T16:13:12.200Z,8.60
2023-01-08T16:15:40.945Z,8.70
2023-01-08T16:18:10.778Z,8.60
2023-01-08T16:20:39.712Z,8.70
2023-01-08T16:23:08.165Z,8.70
2023-01-08T16:25:36.541Z,8.80
2023-01-08T16:28:04.776Z,8.70
2023-01-08T16:30:33.084Z,8.70
2023-01-08T16:33:01.274Z,8.70
2023-01-08T16:35:30.885Z,8.70
2023-01-08T16:37:59.098Z,8.70
2023-01-08T16:40:27.308Z,8.80
2023-01-08T16:43:00.824Z,8.90
2023-01-08T16:45:29.144Z,9.00
2023-01-08T16:47:57.381Z,9.00
2023-01-08T16:50:25.589Z,9.10
2023-01-08T16:52:55.288Z,9.10
2023-01-08T16:55:23.521Z,9.20
2023-01-08T16:57:52.980Z,9.30
2023-01-08T17:00:23.693Z,9.30
2023-01-08T17:02:52.426Z,9.30
2023-01-08T17:05:20.661Z,9.40
2023-01-08T17:07:52.382Z,9.40
2023-01-08T17:10:22.913Z,9.40
2023-01-08T17:12:51.213Z,9.40
2023-01-08T17:15:19.498Z,9.40
2023-01-08T17:17:47.742Z,9.40
2023-01-08T17:20:16.451Z,9.40
2023-01-08T17:22:44.751Z,9.30
2023-01-08T17:25:13.033Z,9.30
2023-01-08T17:27:42.820Z,9.10
2023-01-08T17:30:12.895Z,9.00
2023-01-08T17:32:41.280Z,9.00
2023-01-08T17:35:10.128Z,8.90
2023-01-08T17:37:38.380Z,8.90
2023-01-08T17:40:08.036Z,8.80
2023-01-08T17:42:36.295Z,8.70
2023-01-08T17:45:06.917Z,8.70
2023-01-08T17:47:37.285Z,8.70
2023-01-08T17:50:06.769Z,8.80
2023-01-08T17:52:35.104Z,8.90
2023-01-08T17:55:03.308Z,8.80
2023-01-08T17:57:31.654Z,8.70
2023-01-08T18:00:00.864Z,8.70
2023-01-08T18:02:30.598Z,8.60
2023-01-08T18:04:59.174Z,8.60
2023-01-08T18:07:27.398Z,8.60
2023-01-08T18:09:57.206Z,8.60
2023-01-08T18:12:25.442Z,8.50
2023-01-08T18:14:53.591Z,8.40
2023-01-08T18:17:22.114Z,8.40
2023-01-08T18:19:51.774Z,8.30
2023-01-08T18:22:20.021Z,8.30
2023-01-08T18:24:48.371Z,8.30
2023-01-08T18:27:16.516Z,8.30
2023-01-08T18:29:44.750Z,8.20
2023-01-08T18:32:12.949Z,8.20
2023-01-08T18:34:41.179Z,8.20
2023-01-08T18:37:10.808Z,8.10
2023-01-08T18:39:39.145Z,8.10
2023-01-08T18:42:24.643Z,8.10
2023-01-08T18:44:55.186Z,8.10
2023-01-08T18:47:24.161Z,8.10
2023-01-08T18:49:53.268Z,8.10
2023-01-08T18:52:23.674Z,8.00
2023-01-08T18:54:53.182Z,8.00
2023-01-08T18:57:21.503Z,7.90
2023-01-08T18:59:49.940Z,7.80
2023-01-08T19:02:20.657Z,7.80
2023-01-08T19:04:49.833Z,7.80
2023-01-08T19:07:18.860Z,7.70
2023-01-08T19:09:48.480Z,7.70
2023-01-08T19:12:16.714Z,7.70
2023-01-08T19:14:47.001Z,7.60
2023-01-08T19:17:15.577Z,7.60
2023-01-08T19:19:43.869Z,7.60
2023-01-08T19:22:12.242Z,7.60
2023-01-08T19:24:40.415Z,7.60
2023-01-08T19:27:09.999Z,7.60
2023-01-08T19:29:38.250Z,7.50
2023-01-08T19:32:07.612Z,7.50
2023-01-08T19:34:35.967Z,7.50
2023-01-08T19:37:04.265Z,7.40
2023-01-08T19:39:32.508Z,7.50
2023-01-08T19:42:18.754Z,7.50
2023-01-08T19:44:48.356Z,7.50
2023-01-08T19:47:16.979Z,7.40
2023-01-08T19:49:47.780Z,7.40
2023-01-08T19:52:16.277Z,7.40
2023-01-08T19:54:45.132Z,7.40
2023-01-08T19:57:13.708Z,7.40
2023-01-08T19:59:42.144Z,7.40
2023-01-08T20:02:12.588Z,7.30
2023-01-08T20:04:42.635Z,7.30
2023-01-08T20:07:11.098Z,7.30
2023-01-08T20:09:39.499Z,7.30
2023-01-08T20:12:08.227Z,7.30
2023-01-08T20:14:36.509Z,7.30
2023-01-08T20:17:05.175Z,7.40
2023-01-08T20:19:34.821Z,7.40
2023-01-08T20:22:03.068Z,7.50
2023-01-08T20:24:31.498Z,7.60
2023-01-08T20:26:59.749Z,7.60
2023-01-08T20:29:28.923Z,7.60
2023-01-08T20:31:59.472Z,7.70
2023-01-08T20:34:28.253Z,7.80
2023-01-08T20:36:57.974Z,7.90
2023-01-08T20:39:26.431Z,7.90
2023-01-08T20:42:03.986Z,7.80
2023-01-08T20:44:33.119Z,7.80
2023-01-08T20:47:02.147Z,7.90
2023-01-08T20:49:30.732Z,7.80
2023-01-08T20:52:00.823Z,7.80
2023-01-08T20:54:31.530Z,7.80
2023-01-08T20:57:00.917Z,7.80
2023-01-08T20:59:29.599Z,7.90
2023-01-08T21:01:58.005Z,7.80
2023-01-08T21:04:26.313Z,7.80
2023-01-08T21:06:54.661Z,7.80
2023-01-08T21:09:24.553Z,7.80
2023-01-08T21:11:52.757Z,7.90
2023-01-08T21:14:20.950Z,7.90
2023-01-08T21:16:49.215Z,7.90
2023-01-08T21:19:17.395Z,8.00
2023-01-08T21:21:45.811Z,8.00
2023-01-08T21:24:15.226Z,8.00
2023-01-08T21:26:46.221Z,8.00
2023-01-08T21:29:14.764Z,8.10
2023-01-08T21:31:43.352Z,8.10
2023-01-08T21:34:11.807Z,8.10
2023-01-08T21:36:40.189Z,8.20
2023-01-08T21:39:08.684Z,8.20
2023-01-08T21:41:54.560Z,8.20
2023-01-08T21:44:44.085Z,8.30
2023-01-08T21:47:14.407Z,8.30
2023-01-08T21:49:42.669Z,8.40
2023-01-08T21:52:28.281Z,8.40
2023-01-08T21:54:58.166Z,8.40
2023-01-08T21:57:27.987Z,8.50
2023-01-08T21:59:57.750Z,8.60
2023-01-08T22:02:26.468Z,8.60
2023-01-08T22:04:56.512Z,8.60
2023-01-08T22:07:25.491Z,8.70
2023-01-08T22:09:53.951Z,8.70
2023-01-08T22:12:23.795Z,8.70
2023-01-08T22:14:53.520Z,8.70
2023-01-08T22:17:24.734Z,8.70
2023-01-08T22:19:53.570Z,8.70
2023-01-08T22:22:22.026Z,8.70
2023-01-08T22:24:51.726Z,8.70
2023-01-08T22:27:20.264Z,8.70
2023-01-08T22:29:48.582Z,8.70
2023-01-08T22:32:16.859Z,8.80
2023-01-08T22:34:46.565Z,8.80
2023-01-08T22:37:16.849Z,8.90
2023-01-08T22:39:46.292Z,8.90
2023-01-08T22:42:14.531Z,8.90
2023-01-08T22:44:42.817Z,8.90
2023-01-08T22:47:11.137Z,9.00
2023-01-08T22:49:39.905Z,9.00
2023-01-08T22:52:10.232Z,9.10
2023-01-08T22:54:39.015Z,9.10
2023-01-08T22:57:07.634Z,9.10
2023-01-08T22:59:36.203Z,9.10
2023-01-08T23:02:04.396Z,9.00
2023-01-08T23:04:32.836Z,9.00
2023-01-08T23:07:01.057Z,9.00
2023-01-08T23:09:30.607Z,9.00
2023-01-08T23:11:58.852Z,9.00
2023-01-08T23:14:27.121Z,9.00
2023-01-08T23:16:55.313Z,9.00
2023-01-08T23:19:23.485Z,9.00
2023-01-08T23:21:51.709Z,9.00
2023-01-08T23:24:19.912Z,9.00
2023-01-08T23:26:49.563Z,9.00
2023-01-08T23:29:17.800Z,9.00
2023-01-08T23:31:46.120Z,9.10
2023-01-08T23:34:14.414Z,9.10
2023-01-08T23:36:43.016Z,9.10
2023-01-08T23:39:11.665Z,9.10
2023-01-08T23:41:39.961Z,9.10
2023-01-08T23:44:12.185Z,9.10
2023-01-08T23:46:40.423Z,9.20
2023-01-08T23:49:08.788Z,9.20
2023-01-08T23:51:37.145Z,9.20
2023-01-08T23:54:05.480Z,9.10
2023-01-08T23:56:33.799Z,9.20
2023-01-08T23:59:02.380Z,9.10
